Aérodrome :
LOGIN :

S'inscrire | Disclaimer

   EN    FR    IT 

 










Légende :    VFR   VFR Marginal   IFR   IFR Intensif   IFR Très Intensif
Visi : 
Plafond : 
>= 8 km
>= 3000ft
5 à 8 km
1000 à 3000 ft
1500m à 5 km
500 à 1000 ft
800 à 1500m
200 à 500 ft
< 800m
< 200 ft
Symboles :   Orages  Brouillard  Fortes neiges  Fortes précipitations  Vent > 20 kt
SIGMETs :   Divers  Orages  Givrage  Turbulence  Onde Orograph.  Cendres Volcan.







- Altitude de l'aérodrome : 209 ft
- Code IATA : CLY
- Voir les cartes d'approche


LFKC - Calvi

DERNIER METAR :
  • 230130Z AUTO 17003KT 120V200 CAVOK 12/08 Q1019

METARs EXPIRÉS :
  • 230100Z AUTO 18005KT 140V200 CAVOK 13/09 Q1019
  • 230030Z AUTO 18006KT CAVOK 14/09 Q1019
  • 230000Z AUTO 19005KT CAVOK 12/09 Q1019
  • 222330Z AUTO 20004KT 170V230 CAVOK 12/09 Q1020
  • 222300Z AUTO VRB03KT CAVOK 12/09 Q1019

TAF TAF LFKC
Valide du 22 à 15h jusqu'au 23 à 15h UTC


221400Z 2215/2315 35006KT CAVOK
BECMG 2219/2221 18004KT
BECMG 2308/2311 35006KT TX25/2312Z TN13/2303Z
ATIS : +33 4 95 65 82 49
Pas de NOTAMs connus pour ce terrain.



MET'MAP, la Météo Aéronautique d'un coup d'oeil ! - Copyright ORBIFLY Décembre 2007 - Disclaimer

ORBIFLY MET'MAP TEAM :

Programmation & Développement : Alexandra Zaïnal
Conception & Développement : Baudouin d'Aumeries
Co-Programmation & Développement : Marc-Olivier Méhu
Soutien technique & logistique : Manuel Goepfert

Contact : metmap@orbifly.com




SOURCES & CREDITS :

   NOAA